Time;durP1;ratioP1;P1;durP2;ratioP2;P2;SDS_P1;SDS_P2;PMS_P1;PMS_P2;Temp;Humidity;BMP_temperature;BMP_pressure;BME280_temperature;BME280_humidity;BME280_pressure;Samples;Min_cycle;Max_cycle;Signal;HPM_P1;HPM_P2
2022/08/17 00:02:19;;;;;;;10.90;8.60;;;;;;;19.45;81.16;99600.31;130169;1267;109585;-70
2022/08/17 00:05:25;;;;;;;11.10;8.60;;;;;;;19.40;81.24;99595.09;130148;1267;108674;-70
2022/08/17 00:08:34;;;;;;;10.60;9.60;;;;;;;19.38;81.27;99594.23;130082;1267;108587;-72
2022/08/17 00:11:42;;;;;;;11.40;10.00;;;;;;;19.41;81.34;99590.91;130168;1267;108899;-70
2022/08/17 00:14:49;;;;;;;11.00;9.60;;;;;;;19.37;81.11;99593.35;130176;1268;108952;-71
2022/08/17 00:17:54;;;;;;;11.10;9.40;;;;;;;19.30;81.26;99594.34;130116;1268;108497;-72
2022/08/17 00:21:00;;;;;;;11.20;9.30;;;;;;;19.24;81.30;99587.17;130264;1267;108785;-70
2022/08/17 00:24:06;;;;;;;10.30;9.30;;;;;;;19.19;81.41;99587.10;130067;1267;108774;-71
2022/08/17 00:27:12;;;;;;;12.10;10.30;;;;;;;19.19;81.52;99587.48;130121;1268;108753;-72
2022/08/17 00:30:19;;;;;;;10.90;9.80;;;;;;;19.16;81.27;99593.50;130143;1267;108935;-72
2022/08/17 00:33:26;;;;;;;11.90;10.20;;;;;;;19.07;81.38;99596.30;130118;1267;108809;-71
2022/08/17 00:36:32;;;;;;;12.20;10.00;;;;;;;19.04;81.71;99604.29;130232;1268;107115;-71
2022/08/17 00:39:37;;;;;;;11.10;9.20;;;;;;;19.02;81.82;99609.48;130093;1268;108856;-72
2022/08/17 00:42:44;;;;;;;11.80;9.70;;;;;;;19.02;82.02;99613.66;130220;1267;108763;-72
2022/08/17 00:45:50;;;;;;;13.20;10.30;;;;;;;19.02;81.99;99624.02;130224;1267;107026;-73
2022/08/17 00:48:56;;;;;;;10.90;9.40;;;;;;;19.05;81.95;99626.74;130239;1268;108821;-73
2022/08/17 00:52:07;;;;;;;12.70;10.30;;;;;;;19.02;81.81;99623.33;130237;1267;108209;-72
2022/08/17 00:55:14;;;;;;;13.20;9.50;;;;;;;18.99;81.90;99621.02;130202;1268;108750;-72
2022/08/17 00:58:19;;;;;;;12.00;9.90;;;;;;;18.96;81.87;99618.43;130219;1268;108758;-72
2022/08/17 01:01:26;;;;;;;10.00;8.90;;;;;;;18.89;81.83;99614.42;130187;1267;108783;-72
2022/08/17 01:04:33;;;;;;;10.90;9.80;;;;;;;18.84;81.77;99614.01;130181;1268;109398;-73
2022/08/17 01:07:38;;;;;;;16.90;10.80;;;;;;;18.84;81.91;99611.03;130288;1267;107741;-73
2022/08/17 01:10:48;;;;;;;13.20;10.30;;;;;;;18.82;81.80;99605.01;130163;1268;108727;-72
2022/08/17 01:13:53;;;;;;;10.90;9.70;;;;;;;18.75;81.95;99603.58;130062;1268;108702;-72
2022/08/17 01:17:00;;;;;;;11.80;9.90;;;;;;;18.75;81.78;99607.46;130269;1268;108763;-72
2022/08/17 01:20:06;;;;;;;13.00;10.60;;;;;;;18.74;81.87;99609.92;130232;1268;108772;-72
2022/08/17 01:23:12;;;;;;;14.10;11.10;;;;;;;18.75;81.94;99618.94;130188;1268;109758;-72
2022/08/17 01:26:18;;;;;;;11.90;10.70;;;;;;;18.72;81.91;99620.20;130242;1268;108883;-72
2022/08/17 01:29:25;;;;;;;9.50;8.50;;;;;;;18.67;82.06;99621.50;130105;1268;108885;-72
2022/08/17 01:32:30;;;;;;;11.30;9.40;;;;;;;18.64;81.87;99624.86;130215;1268;108801;-72
2022/08/17 01:35:36;;;;;;;15.70;10.20;;;;;;;18.59;81.82;99627.94;130228;1268;108928;-71
2022/08/17 01:38:41;;;;;;;11.80;10.30;;;;;;;18.54;81.91;99627.02;130242;1268;108754;-71
2022/08/17 01:41:48;;;;;;;12.50;11.20;;;;;;;18.49;82.04;99629.77;130245;1268;108834;-71
2022/08/17 01:44:58;;;;;;;12.40;11.10;;;;;;;18.51;82.06;99632.37;130273;1268;107658;-71
2022/08/17 01:48:04;;;;;;;13.90;11.40;;;;;;;18.54;82.06;99633.70;130187;1268;109021;-71
2022/08/17 01:51:09;;;;;;;11.80;10.30;;;;;;;18.51;82.08;99640.80;130201;1268;109823;-71
2022/08/17 01:54:18;;;;;;;11.80;10.10;;;;;;;18.47;81.97;99639.04;130300;1268;109013;-72
2022/08/17 01:57:23;;;;;;;11.60;10.30;;;;;;;18.42;82.25;99638.31;130228;1268;108925;-72
2022/08/17 02:00:29;;;;;;;12.20;10.70;;;;;;;18.40;82.06;99636.68;130240;1268;106972;-71
2022/08/17 02:03:36;;;;;;;12.30;11.00;;;;;;;18.37;82.14;99636.24;130224;1268;108869;-75
2022/08/17 02:06:43;;;;;;;12.00;10.80;;;;;;;18.33;82.30;99637.04;130257;1268;109000;-75
2022/08/17 02:09:48;;;;;;;14.00;10.90;;;;;;;18.30;82.46;99631.89;130201;1268;108679;-75
2022/08/17 02:12:54;;;;;;;11.50;9.80;;;;;;;18.36;82.44;99633.84;130231;1268;108928;-74
2022/08/17 02:16:00;;;;;;;12.30;10.50;;;;;;;18.39;82.24;99634.95;130213;1267;108110;-75
2022/08/17 02:19:07;;;;;;;12.60;11.00;;;;;;;18.37;82.09;99631.77;130235;1268;108860;-76
2022/08/17 02:22:13;;;;;;;14.20;11.20;;;;;;;18.31;82.23;99630.27;130199;1265;108910;-76
2022/08/17 02:25:20;;;;;;;12.90;10.90;;;;;;;18.31;82.29;99626.02;130046;1267;108767;-75
2022/08/17 02:28:29;;;;;;;13.80;10.40;;;;;;;18.19;82.35;99625.29;130212;1268;108674;-75
2022/08/17 02:31:35;;;;;;;13.30;11.20;;;;;;;18.18;82.40;99623.25;130243;1268;108462;-75
2022/08/17 02:34:40;;;;;;;12.40;10.50;;;;;;;18.21;82.43;99620.91;130298;1268;108873;-75
2022/08/17 02:37:46;;;;;;;14.30;11.30;;;;;;;18.24;82.32;99619.02;130224;1268;108653;-75
2022/08/17 02:40:51;;;;;;;14.60;11.50;;;;;;;18.21;82.38;99614.39;130195;1268;108858;-75
2022/08/17 02:43:57;;;;;;;12.30;10.90;;;;;;;18.14;82.25;99616.35;130179;1268;108646;-75
2022/08/17 02:47:03;;;;;;;11.00;9.70;;;;;;;18.02;82.32;99623.61;130209;1268;107059;-76
2022/08/17 02:50:12;;;;;;;11.40;10.20;;;;;;;18.00;82.39;99627.70;130294;1268;108821;-72
2022/08/17 02:53:17;;;;;;;13.40;10.30;;;;;;;17.97;82.30;99629.08;130224;1268;108213;-74
2022/08/17 02:56:22;;;;;;;14.20;10.80;;;;;;;17.92;82.39;99625.29;130190;1268;107765;-74
2022/08/17 02:59:28;;;;;;;12.70;10.30;;;;;;;17.87;82.38;99626.23;130236;1268;108863;-72
2022/08/17 03:02:39;;;;;;;12.20;10.00;;;;;;;17.87;82.43;99625.20;130192;1268;109215;-72
2022/08/17 03:05:46;;;;;;;18.60;11.10;;;;;;;17.79;82.25;99623.09;130279;1268;109153;-72
2022/08/17 03:08:53;;;;;;;14.70;10.70;;;;;;;17.72;82.41;99622.63;130277;1268;108023;-72
2022/08/17 03:12:07;;;;;;;13.70;10.70;;;;;;;17.65;82.63;99626.52;130280;1268;108923;-72
2022/08/17 03:15:16;;;;;;;11.60;10.40;;;;;;;17.64;82.84;99626.73;130222;1268;108279;-72
2022/08/17 03:18:24;;;;;;;13.10;11.30;;;;;;;17.69;82.85;99631.07;130302;1268;108794;-72
2022/08/17 03:21:30;;;;;;;11.80;10.60;;;;;;;17.63;82.64;99632.92;130303;1268;108551;-73
2022/08/17 03:24:35;;;;;;;12.70;9.10;;;;;;;17.62;82.92;99637.83;130196;1268;108672;-72
2022/08/17 03:27:40;;;;;;;11.10;9.80;;;;;;;17.67;82.82;99642.20;130194;1268;108799;-72
2022/08/17 03:30:46;;;;;;;13.30;10.80;;;;;;;17.65;82.71;99638.80;130235;1268;108790;-71
2022/08/17 03:33:51;;;;;;;12.70;10.50;;;;;;;17.65;82.69;99633.75;130208;1268;108890;-72
2022/08/17 03:36:56;;;;;;;11.50;10.30;;;;;;;17.62;82.68;99636.21;130225;1268;108938;-72
2022/08/17 03:40:02;;;;;;;12.10;9.70;;;;;;;17.61;82.93;99639.98;130211;1268;109017;-72
2022/08/17 03:43:09;;;;;;;10.80;9.50;;;;;;;17.63;82.83;99641.26;130192;1268;108719;-71
2022/08/17 03:56:43;;;;;;;13.10;10.60;;;;;;;17.91;82.82;99640.99;130222;1267;107119;-72
2022/08/17 03:59:49;;;;;;;12.10;10.30;;;;;;;17.90;82.86;99638.45;130068;1268;108792;-70
2022/08/17 04:02:55;;;;;;;12.00;9.80;;;;;;;17.92;82.88;99640.86;130267;1268;108794;-71
2022/08/17 04:06:01;;;;;;;12.40;10.60;;;;;;;17.93;82.80;99645.51;130271;1268;109215;-71
2022/08/17 04:09:07;;;;;;;11.80;10.20;;;;;;;17.97;83.04;99645.81;130255;1268;108753;-71
2022/08/17 04:12:14;;;;;;;14.20;10.80;;;;;;;18.03;82.92;99647.73;130214;1267;108782;-71
2022/08/17 04:15:20;;;;;;;12.70;11.40;;;;;;;18.10;83.02;99655.34;130277;1267;109151;-71
2022/08/17 04:18:26;;;;;;;12.70;10.40;;;;;;;18.16;82.95;99658.13;129146;1267;1330275;-71
2022/08/17 04:21:31;;;;;;;11.30;9.50;;;;;;;18.21;82.97;99658.92;130058;1268;108473;-70
2022/08/17 04:24:37;;;;;;;13.40;10.90;;;;;;;18.29;83.09;99664.61;130125;1268;108840;-70
2022/08/17 04:27:42;;;;;;;12.60;11.30;;;;;;;18.38;83.36;99666.95;130108;1268;109563;-71
2022/08/17 04:30:48;;;;;;;12.50;11.10;;;;;;;18.49;83.40;99663.38;130086;1268;109629;-71
2022/08/17 04:33:54;;;;;;;13.20;10.50;;;;;;;18.60;83.37;99664.17;130203;1268;108967;-70
2022/08/17 04:36:59;;;;;;;13.60;10.10;;;;;;;18.73;83.29;99666.34;130086;1268;107971;-71
2022/08/17 04:43:31;;;;;;;12.10;10.60;;;;;;;19.13;83.55;99670.38;130281;1267;108725;-70
2022/08/17 04:46:37;;;;;;;12.40;11.10;;;;;;;19.33;83.52;99669.01;130453;1268;107741;-71
2022/08/17 04:49:42;;;;;;;12.20;10.30;;;;;;;19.45;83.41;99671.32;130494;1268;108665;-71
2022/08/17 04:52:48;;;;;;;12.70;11.20;;;;;;;19.59;83.44;99685.69;130397;1268;107872;-71
2022/08/17 04:55:56;;;;;;;12.80;11.10;;;;;;;19.75;83.69;99680.48;130417;1268;108920;-72
2022/08/17 04:59:03;;;;;;;12.90;11.60;;;;;;;19.96;83.88;99680.98;130420;1268;108771;-72
2022/08/17 05:02:08;;;;;;;15.10;12.30;;;;;;;20.17;83.98;99675.56;130262;1267;108799;-72
2022/08/17 05:05:17;;;;;;;12.80;11.40;;;;;;;20.33;83.86;99676.91;130369;1268;108837;-73
2022/08/17 05:08:22;;;;;;;12.80;11.50;;;;;;;20.50;83.93;99685.48;130352;1268;108592;-71
2022/08/17 05:11:29;;;;;;;19.20;13.80;;;;;;;20.68;84.05;99692.30;130335;1268;108615;-72
2022/08/17 05:14:35;;;;;;;18.50;15.50;;;;;;;20.88;84.26;99693.77;130392;1267;109201;-72
2022/08/17 05:17:40;;;;;;;18.60;15.80;;;;;;;21.07;84.22;99697.19;130351;1268;108798;-74
2022/08/17 05:20:45;;;;;;;18.10;15.40;;;;;;;21.20;84.27;99699.33;130324;1267;108659;-72
2022/08/17 05:23:52;;;;;;;15.80;14.10;;;;;;;21.34;84.43;99699.25;130354;1268;108634;-72
2022/08/17 05:26:57;;;;;;;17.70;15.80;;;;;;;21.50;84.53;99694.33;130516;1268;109261;-75
2022/08/17 05:30:02;;;;;;;16.50;14.80;;;;;;;21.70;84.49;99695.94;130509;1268;107725;-74
2022/08/17 05:33:11;;;;;;;19.00;17.10;;;;;;;21.90;84.45;99695.31;130408;1268;108744;-72
2022/08/17 05:36:16;;;;;;;19.00;17.00;;;;;;;22.08;84.26;99689.34;130509;1267;108731;-71
2022/08/17 05:39:22;;;;;;;19.50;17.50;;;;;;;22.19;84.22;99688.96;130323;1268;108838;-71
2022/08/17 05:42:27;;;;;;;22.00;18.10;;;;;;;22.27;84.23;99690.00;130269;1268;108799;-70
2022/08/17 05:45:33;;;;;;;21.10;17.90;;;;;;;22.36;84.55;99687.98;130379;1268;109372;-72
2022/08/17 05:48:42;;;;;;;23.50;19.50;;;;;;;22.47;84.14;99689.61;130432;1268;108605;-71
2022/08/17 05:52:13;;;;;;;19.50;17.50;;;;;;;22.48;84.26;99688.08;130195;1268;108610;-75
2022/08/17 05:55:26;;;;;;;12.40;11.10;;;;;;;22.60;84.34;99687.87;130200;1267;109669;-71
2022/08/17 05:58:40;;;;;;;15.20;13.60;;;;;;;22.75;83.95;99687.94;130195;1268;108633;-72
2022/08/17 06:01:55;;;;;;;21.50;19.30;;;;;;;22.89;83.83;99684.35;130202;1268;109645;-71
2022/08/17 06:05:14;;;;;;;21.60;19.40;;;;;;;23.03;84.12;99685.84;130220;1268;108689;-71
2022/08/17 06:08:26;;;;;;;22.50;20.00;;;;;;;23.10;84.11;99692.60;130317;1268;109052;-71
2022/08/17 06:11:38;;;;;;;13.80;12.30;;;;;;;23.20;83.88;99697.58;130262;1268;108773;-71
2022/08/17 06:15:00;;;;;;;21.00;18.60;;;;;;;23.30;83.24;99695.59;130228;1268;108664;-71
2022/08/17 06:18:09;;;;;;;23.20;20.70;;;;;;;23.41;83.56;99697.05;130280;1268;108654;-72
2022/08/17 06:21:17;;;;;;;22.60;20.30;;;;;;;23.47;83.42;99697.21;130240;1268;109552;-71
2022/08/17 06:24:28;;;;;;;23.30;21.00;;;;;;;23.55;83.60;99691.85;130341;1267;108814;-71
2022/08/17 06:27:38;;;;;;;24.40;20.30;;;;;;;23.59;83.42;99694.91;130310;1268;108676;-71
2022/08/17 06:30:50;;;;;;;20.20;18.00;;;;;;;23.55;83.30;99695.50;130276;1268;109589;-72
2022/08/17 06:33:58;;;;;;;20.10;17.90;;;;;;;23.61;83.45;99693.13;130314;1267;107493;-71
2022/08/17 06:37:13;;;;;;;21.70;19.50;;;;;;;23.71;83.27;99691.07;130352;1267;109340;-71
2022/08/17 06:40:44;;;;;;;21.00;18.90;;;;;;;23.76;83.26;99694.35;130271;1268;109477;-71
2022/08/17 06:44:02;;;;;;;19.70;17.70;;;;;;;23.83;83.64;99694.09;130264;1268;109966;-71
2022/08/17 06:47:17;;;;;;;19.10;16.50;;;;;;;23.92;83.27;99695.55;130207;1268;108642;-70
2022/08/17 06:50:31;;;;;;;20.50;18.30;;;;;;;23.98;83.14;99697.48;130196;1268;108742;-71
2022/08/17 06:53:44;;;;;;;21.30;18.80;;;;;;;24.02;83.32;99694.30;130275;1267;109713;-70
2022/08/17 06:56:57;;;;;;;20.80;18.70;;;;;;;24.14;83.16;99693.50;130324;1268;109476;-70
2022/08/17 07:00:11;;;;;;;22.80;19.20;;;;;;;24.16;82.84;99693.63;130350;1268;109974;-70
2022/08/17 07:03:26;;;;;;;20.30;18.20;;;;;;;24.15;82.83;99691.12;130251;1268;108944;-70
2022/08/17 07:06:38;;;;;;;20.50;17.90;;;;;;;24.15;82.78;99694.11;130320;1268;108854;-71
2022/08/17 07:09:44;;;;;;;20.30;17.70;;;;;;;24.17;83.09;99694.02;130291;1268;108946;-71
2022/08/17 07:12:53;;;;;;;19.20;17.00;;;;;;;24.21;82.67;99694.40;130282;1268;109767;-71
2022/08/17 07:16:07;;;;;;;20.20;17.40;;;;;;;24.32;82.78;99694.02;130199;1267;109133;-70
2022/08/17 07:19:14;;;;;;;19.20;17.20;;;;;;;24.37;82.49;99694.28;130135;1268;109338;-70
2022/08/17 07:22:29;;;;;;;21.10;16.50;;;;;;;24.41;82.16;99695.52;130209;1268;108632;-71
2022/08/17 07:25:34;;;;;;;19.20;17.30;;;;;;;24.42;82.11;99700.38;130288;1268;108785;-71
2022/08/17 07:28:40;;;;;;;19.20;17.10;;;;;;;24.40;82.19;99697.09;130223;1267;108946;-71
2022/08/17 07:31:45;;;;;;;19.40;16.90;;;;;;;24.54;82.36;99692.50;130244;1268;107301;-70
2022/08/17 07:35:19;;;;;;;19.90;16.50;;;;;;;24.66;82.09;99693.21;130289;1268;108634;-70
2022/08/17 07:38:27;;;;;;;15.80;14.00;;;;;;;24.69;81.67;99693.29;130362;1268;108932;-70
2022/08/17 07:41:39;;;;;;;16.70;15.00;;;;;;;24.77;81.62;99695.59;130261;1268;108766;-70
2022/08/17 07:44:52;;;;;;;18.60;16.60;;;;;;;24.82;81.53;99693.66;130360;1268;109036;-70
2022/08/17 07:51:32;;;;;;;18.50;16.60;;;;;;;25.01;81.18;99694.41;130116;1268;108868;-71
2022/08/17 07:54:40;;;;;;;17.20;15.30;;;;;;;25.10;81.08;99688.85;130211;1268;108736;-70
2022/08/17 07:57:57;;;;;;;17.30;15.60;;;;;;;25.18;80.22;99695.93;129991;1268;109716;-70
2022/08/17 08:01:08;;;;;;;19.30;15.90;;;;;;;25.20;80.44;99697.91;130138;1268;108758;-70
2022/08/17 08:04:33;;;;;;;16.80;15.00;;;;;;;25.28;80.15;99701.66;130133;1267;108708;-70
2022/08/17 08:07:49;;;;;;;17.10;15.50;;;;;;;25.32;79.09;99706.21;130139;1268;108664;-69
2022/08/17 08:11:03;;;;;;;16.30;14.50;;;;;;;25.40;79.77;99702.39;130104;1268;108677;-70
2022/08/17 08:14:24;;;;;;;15.70;13.80;;;;;;;25.47;78.97;99705.59;130225;1267;108672;-70
2022/08/17 08:17:34;;;;;;;;;;;;;;;25.56;79.18;99711.41;130156;1268;108596;-70
2022/08/17 08:20:48;;;;;;;15.20;13.20;;;;;;;25.63;77.87;99712.05;130110;1267;108700;-70
2022/08/17 08:23:59;;;;;;;16.10;14.00;;;;;;;25.71;78.71;99712.96;130168;1267;107318;-69
2022/08/17 08:27:19;;;;;;;14.30;12.80;;;;;;;25.80;77.65;99712.41;130140;1267;108969;-70
2022/08/17 08:30:27;;;;;;;14.90;13.40;;;;;;;25.88;77.65;99715.84;130154;1267;107617;-69
2022/08/17 08:33:44;;;;;;;14.70;13.20;;;;;;;25.93;77.36;99707.45;130268;1268;108165;-70
2022/08/17 08:36:56;;;;;;;17.50;13.50;;;;;;;26.06;77.64;99708.36;130195;1268;108941;-70
2022/08/17 08:40:11;;;;;;;16.80;12.40;;;;;;;26.18;77.10;99712.39;130215;1268;108690;-70
2022/08/17 08:43:26;;;;;;;15.80;12.80;;;;;;;26.34;76.60;99706.41;130306;1268;108008;-70
2022/08/17 08:46:42;;;;;;;13.50;12.10;;;;;;;26.54;76.94;99704.18;130287;1268;108363;-71
2022/08/17 08:50:09;;;;;;;14.90;12.40;;;;;;;26.84;76.46;99704.22;130279;1268;108845;-71
2022/08/17 08:53:35;;;;;;;14.30;11.70;;;;;;;27.02;76.07;99712.21;130236;1267;108856;-70
2022/08/17 08:56:46;;;;;;;12.80;11.50;;;;;;;27.14;74.36;99716.30;130289;1268;108772;-70
2022/08/17 09:00:07;;;;;;;14.30;12.90;;;;;;;27.24;75.16;99714.54;130293;1268;108288;-70
2022/08/17 09:03:51;;;;;;;15.30;12.70;;;;;;;27.34;74.27;99704.67;130332;1267;108455;-70
2022/08/17 09:07:10;;;;;;;14.10;12.40;;;;;;;27.19;72.53;99717.98;130235;1267;107635;-70
2022/08/17 09:10:24;;;;;;;14.30;12.90;;;;;;;27.06;74.32;99719.65;130116;1267;108760;-69
2022/08/17 09:13:43;;;;;;;12.40;11.20;;;;;;;27.24;73.46;99713.22;130070;1267;108823;-71
2022/08/17 09:16:57;;;;;;;14.00;11.60;;;;;;;27.46;73.85;99714.95;130092;1267;107745;-69
2022/08/17 09:20:12;;;;;;;13.50;12.00;;;;;;;27.57;72.69;99719.46;130098;1267;108105;-71
2022/08/17 09:23:26;;;;;;;13.00;11.70;;;;;;;27.50;72.81;99723.77;130139;1267;108874;-69
2022/08/17 09:26:39;;;;;;;12.60;11.40;;;;;;;27.52;72.64;99723.70;130072;1268;107059;-72
2022/08/17 09:29:51;;;;;;;13.80;12.50;;;;;;;27.58;72.45;99723.95;130179;1267;108462;-69
2022/08/17 09:33:01;;;;;;;13.60;12.20;;;;;;;27.53;72.41;99721.98;130140;1268;107928;-72
2022/08/17 09:36:14;;;;;;;14.10;12.80;;;;;;;27.61;72.49;99723.72;130140;1268;107345;-72
2022/08/17 09:39:25;;;;;;;13.50;12.20;;;;;;;27.69;71.56;99717.48;130174;1268;107501;-72
2022/08/17 09:42:39;;;;;;;14.50;13.00;;;;;;;27.77;71.61;99717.96;130337;1267;107627;-72
2022/08/17 09:45:51;;;;;;;12.90;11.60;;;;;;;27.80;70.67;99716.02;130114;1268;109061;-71
2022/08/17 09:49:03;;;;;;;12.60;10.90;;;;;;;27.65;71.05;99714.98;130109;1267;108873;-70
2022/08/17 09:52:14;;;;;;;12.00;10.90;;;;;;;27.66;71.32;99718.27;130114;1267;107502;-71
2022/08/17 09:55:18;;;;;;;;;;;;;;;27.79;71.21;99713.67;130825;1267;108825;-70
2022/08/17 09:58:30;;;;;;;11.30;9.90;;;;;;;27.81;70.57;99710.52;130090;1267;107453;-73
2022/08/17 10:01:42;;;;;;;13.60;12.30;;;;;;;27.90;70.54;99712.66;130117;1267;108959;-69
2022/08/17 10:05:00;;;;;;;13.30;11.90;;;;;;;27.79;69.49;99714.06;130218;1267;108556;-69
2022/08/17 10:08:15;;;;;;;13.50;12.20;;;;;;;27.71;69.78;99710.41;130118;1267;108697;-71
2022/08/17 10:15:08;;;;;;;14.00;11.80;;;;;;;27.70;69.78;99707.90;130095;1268;109691;-70
2022/08/17 10:18:26;;;;;;;14.40;11.60;;;;;;;27.85;69.34;99708.27;130154;1267;109753;-71
2022/08/17 10:28:36;;;;;;;12.70;11.40;;;;;;;27.85;68.54;99710.80;130101;1268;109612;-69
2022/08/17 10:31:45;;;;;;;12.20;11.00;;;;;;;27.66;68.54;99712.48;130293;1267;108843;-72
2022/08/17 10:35:13;;;;;;;17.00;12.70;;;;;;;27.59;67.92;99716.48;130265;1267;108527;-70
2022/08/17 10:38:45;;;;;;;13.40;11.60;;;;;;;27.56;67.83;99722.20;130234;1267;108813;-70
2022/08/17 10:41:57;;;;;;;12.70;11.20;;;;;;;27.54;67.51;99720.84;130077;1267;108872;-71
2022/08/17 10:45:06;;;;;;;11.80;10.60;;;;;;;27.56;67.79;99720.39;130188;1268;109677;-70
2022/08/17 10:48:31;;;;;;;11.90;10.60;;;;;;;27.74;67.90;99714.46;130264;1268;108658;-71
2022/08/17 10:51:39;;;;;;;12.60;11.10;;;;;;;28.10;67.76;99709.00;130259;1268;108679;-70
2022/08/17 10:55:05;;;;;;;11.50;10.10;;;;;;;28.44;66.99;99712.69;130317;1268;108657;-72
2022/08/17 10:58:23;;;;;;;12.20;10.60;;;;;;;28.80;66.74;99710.45;130295;1267;108831;-71
2022/08/17 11:01:59;;;;;;;11.40;10.20;;;;;;;29.00;65.95;99710.45;130279;1267;108576;-72
2022/08/17 11:05:30;;;;;;;11.70;10.40;;;;;;;28.80;64.09;99716.73;130223;1268;108563;-72
2022/08/17 11:09:07;;;;;;;11.80;10.80;;;;;;;28.39;64.74;99717.77;130267;1268;109669;-72
2022/08/17 11:12:24;;;;;;;12.10;10.90;;;;;;;27.96;65.58;99724.48;130192;1267;108729;-72
2022/08/17 11:15:45;;;;;;;13.50;10.60;;;;;;;27.76;66.13;99723.45;130037;1268;108625;-72
2022/08/17 11:19:08;;;;;;;;;;;;;;;27.67;66.30;99720.23;130347;1268;108713;-70
2022/08/17 11:22:33;;;;;;;11.70;10.40;;;;;;;27.63;66.12;99724.48;130250;1268;108789;-70
2022/08/17 11:25:42;;;;;;;11.90;10.70;;;;;;;27.60;66.48;99730.52;130213;1268;108820;-70
2022/08/17 11:28:53;;;;;;;12.90;11.70;;;;;;;27.55;66.45;99737.55;130283;1268;108769;-70
2022/08/17 11:32:06;;;;;;;12.20;11.10;;;;;;;27.52;66.92;99742.88;130276;1268;108952;-72
2022/08/17 11:35:38;;;;;;;12.70;11.50;;;;;;;27.54;66.75;99737.66;130318;1268;107450;-71
2022/08/17 11:38:56;;;;;;;13.50;12.10;;;;;;;27.67;66.88;99728.25;130497;1268;109761;-71
2022/08/17 11:42:10;;;;;;;12.50;11.30;;;;;;;27.85;66.63;99728.20;130307;1268;108785;-72
2022/08/17 11:45:41;;;;;;;13.20;11.90;;;;;;;27.99;66.23;99729.25;130310;1268;109396;-72
2022/08/17 11:52:41;;;;;;;12.20;11.00;;;;;;;27.93;66.15;99731.02;130220;1268;111579;-76
2022/08/17 11:56:08;;;;;;;11.70;10.60;;;;;;;27.84;65.79;99727.16;130296;1268;109493;-72
2022/08/17 11:59:49;;;;;;;13.20;11.30;;;;;;;27.81;66.38;99728.04;130385;1268;108772;-72
2022/08/17 12:03:23;;;;;;;12.20;11.00;;;;;;;27.84;65.36;99729.29;130345;1268;108850;-72
2022/08/17 12:06:48;;;;;;;11.90;10.80;;;;;;;27.84;65.97;99726.93;130382;1268;107543;-72
2022/08/17 12:09:56;;;;;;;11.70;10.30;;;;;;;27.90;66.18;99727.86;130430;1268;108985;-72
2022/08/17 12:13:06;;;;;;;11.90;10.40;;;;;;;27.95;66.21;99724.04;130334;1268;107203;-70
2022/08/17 12:16:16;;;;;;;11.80;10.40;;;;;;;27.99;65.76;99727.11;130216;1268;108209;-71
2022/08/17 12:19:26;;;;;;;11.20;9.90;;;;;;;28.05;65.86;99734.27;130261;1268;109371;-73
2022/08/17 12:22:52;;;;;;;11.30;10.20;;;;;;;28.15;65.77;99738.92;130109;1268;108122;-72
2022/08/17 12:26:04;;;;;;;11.70;10.50;;;;;;;28.08;64.94;99734.69;130083;1267;108650;-71
2022/08/17 12:29:16;;;;;;;11.10;10.10;;;;;;;28.03;65.10;99738.23;130120;1267;108253;-71
2022/08/17 12:32:24;;;;;;;9.60;8.70;;;;;;;27.96;64.57;99743.09;130180;1267;107340;-72
2022/08/17 12:35:33;;;;;;;9.20;8.30;;;;;;;27.91;64.57;99744.16;130341;1267;108599;-71
2022/08/17 12:38:40;;;;;;;9.30;8.40;;;;;;;27.92;63.82;99743.05;130246;1265;108434;-71
2022/08/17 12:41:48;;;;;;;10.30;8.90;;;;;;;27.90;63.91;99742.02;130177;1267;107619;-71
2022/08/17 12:44:54;;;;;;;9.80;8.80;;;;;;;27.90;64.04;99739.10;130293;1268;108874;-70
2022/08/17 12:48:06;;;;;;;9.10;8.20;;;;;;;27.90;64.08;99734.34;130236;1268;109498;-71
2022/08/17 12:51:13;;;;;;;10.00;9.00;;;;;;;27.91;64.27;99734.27;130277;1267;108797;-71
2022/08/17 12:54:45;;;;;;;10.40;9.30;;;;;;;27.93;64.08;99737.78;130185;1267;108955;-71
2022/08/17 12:57:53;;;;;;;10.70;9.60;;;;;;;27.94;63.39;99738.54;130091;1269;110360;-71
2022/08/17 13:01:04;;;;;;;10.50;9.50;;;;;;;27.95;63.56;99731.45;130132;1267;108934;-71
2022/08/17 13:04:15;;;;;;;11.80;9.70;;;;;;;27.99;63.48;99724.41;130102;1267;107306;-71
2022/08/17 13:07:31;;;;;;;13.20;9.30;;;;;;;28.01;63.26;99718.16;130059;1267;108679;-71
2022/08/17 13:10:37;;;;;;;10.00;9.10;;;;;;;28.02;63.13;99718.27;130100;1268;108625;-70
2022/08/17 13:13:46;;;;;;;10.50;9.00;;;;;;;27.96;62.15;99717.35;130254;1267;108871;-71
2022/08/17 13:16:57;;;;;;;9.90;8.90;;;;;;;27.89;62.48;99714.53;130137;1268;107507;-70
2022/08/17 13:20:04;;;;;;;11.30;9.10;;;;;;;27.92;62.87;99711.67;130264;1267;108791;-71
2022/08/17 13:23:19;;;;;;;11.10;9.10;;;;;;;27.94;62.04;99713.70;130204;1267;107880;-71
2022/08/17 13:26:28;;;;;;;10.10;8.90;;;;;;;27.96;62.63;99712.53;130213;1268;108750;-70
2022/08/17 13:29:37;;;;;;;11.90;9.20;;;;;;;28.08;62.84;99712.80;130411;1267;108904;-72
2022/08/17 13:32:45;;;;;;;;;;;;;;;28.14;62.61;99721.21;130250;1268;108232;-70
2022/08/17 13:36:07;;;;;;;10.10;8.80;;;;;;;28.05;62.43;99720.11;130402;1268;108579;-71
2022/08/17 13:39:18;;;;;;;9.80;8.40;;;;;;;28.04;62.34;99720.28;130198;1267;106903;-71
2022/08/17 13:42:43;;;;;;;10.70;9.30;;;;;;;28.04;62.07;99724.39;130288;1268;108795;-72
2022/08/17 13:45:53;;;;;;;9.90;9.00;;;;;;;27.97;61.86;99726.90;130228;1268;108973;-71
2022/08/17 13:49:02;;;;;;;9.80;8.80;;;;;;;27.93;62.09;99734.59;130352;1268;108710;-70
2022/08/17 13:52:36;;;;;;;10.30;9.10;;;;;;;28.00;62.05;99733.08;130185;1267;108581;-72
2022/08/17 13:55:46;;;;;;;11.90;8.90;;;;;;;28.17;61.63;99728.05;130156;1268;108865;-72
2022/08/17 13:58:56;;;;;;;10.50;8.90;;;;;;;28.22;60.71;99727.65;130244;1268;108953;-71
2022/08/17 14:02:03;;;;;;;11.70;9.00;;;;;;;28.30;61.77;99730.39;130276;1268;110455;-72
2022/08/17 14:05:09;;;;;;;9.90;8.90;;;;;;;28.43;61.58;99730.91;130254;1268;108708;-71
2022/08/17 14:08:17;;;;;;;10.20;9.20;;;;;;;28.58;61.38;99732.48;130273;1267;108803;-71
2022/08/17 14:11:24;;;;;;;10.10;9.00;;;;;;;28.81;61.18;99725.71;130111;1268;109417;-72
2022/08/17 14:14:30;;;;;;;16.60;15.00;;;;;;;28.99;61.07;99719.96;130265;1267;108520;-71
2022/08/17 14:17:35;;;;;;;28.10;25.30;;;;;;;29.08;60.25;99721.48;130070;1267;109584;-72
2022/08/17 14:20:41;;;;;;;14.40;12.90;;;;;;;29.18;60.52;99728.11;130228;1267;108116;-73
2022/08/17 14:23:47;;;;;;;19.10;17.20;;;;;;;29.20;59.18;99738.31;130243;1267;108816;-71
2022/08/17 14:26:53;;;;;;;12.40;11.10;;;;;;;29.20;60.05;99733.20;130141;1268;108335;-71
2022/08/17 14:29:59;;;;;;;10.20;9.20;;;;;;;29.38;59.84;99728.80;130100;1267;108089;-71
2022/08/17 14:33:04;;;;;;;11.30;9.90;;;;;;;29.59;60.44;99725.80;130168;1267;108096;-74
2022/08/17 14:36:10;;;;;;;10.90;9.50;;;;;;;29.75;60.29;99723.16;130252;1267;107708;-72
2022/08/17 14:39:16;;;;;;;11.20;9.10;;;;;;;29.74;59.69;99723.73;130260;1267;108814;-73
2022/08/17 14:42:23;;;;;;;11.90;9.10;;;;;;;29.59;58.90;99726.25;130250;1267;108039;-73
2022/08/17 14:45:29;;;;;;;11.20;9.20;;;;;;;29.43;59.65;99724.95;130226;1267;107460;-72
2022/08/17 14:48:37;;;;;;;10.40;9.00;;;;;;;29.30;59.45;99730.90;130427;1267;108278;-74
2022/08/17 14:51:43;;;;;;;9.60;8.60;;;;;;;29.14;59.44;99732.42;130366;1268;108641;-74
2022/08/17 14:54:50;;;;;;;9.80;8.00;;;;;;;29.01;59.38;99726.77;130226;1267;108895;-71